Sant Hilari Sacalm





Hora UTC 16:50
Temperatura 26.5 ºC
Humitat 49.4 %
Pressió 1019.7 hPa
Pluja 0.0 mm
Velocitat vent 6.1 km/h
Direcció vent E
Radiació solar 360.4 W/m²

Dades diàries 2020-07-05



Hora UTC (hivern +1h; estiu +2h)
Temperatura (ºC) Humitat (%) Pressió (hPa) Velocitat vent (km/h) Precipitació (mm) Radiació solar (W/m²)
Hora UTC Aire Humitat Pressió Vel. Dir. Vel. Max Dir. Intent. màx 5 min. Rad. Sol.
00:05 17.1 94.0 1022.3 7.1 WNW 7.1 W 0.0 0.1
00:10 17.4 91.8 1022.3 7.1 WNW 14.2 WNW 0.0 0.1
00:15 17.5 91.4 1022.3 9.8 W 22.3 W 0.0 0.1
00:20 17.5 90.6 1022.2 9.5 W 16.9 W 0.0 0.1
00:25 17.4 91.3 1022.2 6.5 W 11.5 W 0.0 0.1
00:30 17.4 91.4 1022.1 7.9 WNW 14.2 W 0.0 0.1
00:35 17.8 89.6 1022.0 11.3 WNW 16.9 WNW 0.0 0.1
00:40 18.0 88.6 1021.9 9.7 WNW 16.9 WNW 0.0 0.1
00:45 17.9 89.0 1021.8 8.1 WNW 19.6 WNW 0.0 0.1
00:50 17.7 89.9 1021.8 6.8 WNW 14.2 NNW 0.0 0.1
00:55 17.7 89.5 1021.8 6.8 NW 16.9 WNW 0.0 0.1
01:00 17.7 89.4 1021.7 6.2 WNW 14.2 NW 0.0 0.1
01:05 17.7 89.1 1021.7 7.7 WNW 16.9 W 0.0 0.1
01:10 17.8 87.6 1021.7 11.0 WNW 19.6 WNW 0.0 0.1
01:15 18.0 86.6 1021.7 11.1 WNW 25.0 WNW 0.0 0.1
01:20 17.7 87.1 1021.6 7.4 WNW 14.2 NW 0.0 0.1
01:25 17.8 86.3 1021.6 7.4 WNW 16.9 WNW 0.0 0.1
01:30 17.8 85.8 1021.5 6.2 NW 11.5 WNW 0.0 0.1
01:35 17.8 86.4 1021.5 6.0 WNW 16.9 W 0.0 0.1
01:40 17.9 85.5 1021.5 7.7 WNW 16.9 WNW 0.0 0.1
01:45 17.8 85.0 1021.4 7.6 WNW 14.2 WNW 0.0 0.1
01:50 17.8 85.4 1021.4 8.5 WNW 16.9 WNW 0.0 0.1
01:55 17.8 85.9 1021.3 9.2 WNW 16.9 W 0.0 0.1
02:00 18.0 84.3 1021.3 10.9 WNW 19.6 WNW 0.0 0.1
02:05 18.2 82.7 1021.2 9.2 WNW 16.9 WNW 0.0 0.1
02:10 18.0 82.3 1021.2 7.8 WNW 16.9 W 0.0 0.1
02:15 18.1 79.2 1021.2 9.8 WNW 16.9 WNW 0.0 0.1
02:20 18.2 79.2 1021.2 9.8 WNW 16.9 WNW 0.0 0.1
02:25 18.1 81.0 1021.2 9.0 WNW 16.9 WNW 0.0 0.1
02:30 17.9 81.1 1021.2 7.2 WNW 11.5 W 0.0 0.1
02:35 17.8 79.6 1021.2 8.3 WNW 14.2 WNW 0.0 0.1
02:40 17.8 77.5 1021.2 8.3 W 16.9 W 0.0 0.1
02:45 17.6 78.8 1021.1 6.2 WNW 11.5 NW 0.0 0.1
02:50 17.1 82.4 1021.1 4.0 WNW 8.8 W 0.0 0.1
02:55 16.6 85.2 1021.0 4.5 W 8.8 WNW 0.0 0.1
03:00 16.2 87.9 1021.1 6.3 W 8.8 WSW 0.0 0.1
03:05 16.0 87.7 1021.1 4.6 W 11.5 WSW 0.0 0.1
03:10 16.0 86.2 1021.1 4.2 WSW 8.8 WNW 0.0 0.1
03:15 15.7 89.0 1021.1 5.5 WSW 8.8 W 0.0 0.1
03:20 15.4 90.8 1021.1 6.3 WSW 11.5 WSW 0.0 0.1
03:25 15.3 89.9 1021.0 5.6 WSW 8.8 W 0.0 0.1
03:30 15.4 89.2 1021.1 5.9 WSW 8.8 WSW 0.0 0.1
03:35 15.3 89.1 1021.1 6.8 WSW 11.5 WSW 0.0 0.1
03:40 15.2 89.2 1021.1 3.6 WSW 8.8 WSW 0.0 0.1
03:45 15.2 88.8 1021.1 3.6 SW 8.8 SSW 0.0 0.1
03:50 15.2 88.8 1021.1 6.3 WSW 11.5 WSW 0.0 0.1
03:55 15.1 88.5 1021.1 4.4 WSW 11.5 WSW 0.0 0.1
04:00 15.1 87.9 1021.1 3.7 WSW 8.8 WSW 0.0 0.2
04:05 15.1 87.2 1021.2 5.6 SW 8.8 SW 0.0 0.6
04:10 15.2 86.3 1021.2 7.8 WSW 11.5 WSW 0.0 1.3
04:15 15.0 87.2 1021.2 3.6 WSW 8.8 W 0.0 2.2
04:20 15.1 87.1 1021.2 4.7 SSW 8.8 SSW 0.0 3.4
04:25 14.8 88.5 1021.2 1.0 SSW 6.1 SW 0.0 5.0
04:30 14.9 88.3 1021.2 0.3 SW 3.4 SW 0.0 6.6
04:35 15.0 87.2 1021.2 1.4 SW 6.1 SW 0.0 8.4
04:40 15.0 87.3 1021.2 5.0 WSW 8.8 WSW 0.0 10.4
04:45 14.7 88.6 1021.2 4.4 WSW 8.8 W 0.0 12.2
04:50 14.9 87.0 1021.2 4.6 SW 8.8 SSW 0.0 14.3
04:55 15.1 85.2 1021.2 4.7 WSW 8.8 WSW 0.0 16.4
05:00 15.2 85.6 1021.2 3.3 SSW 6.1 SSW 0.0 19.8
05:05 15.2 85.3 1021.3 3.0 SSW 6.1 SSW 0.0 53.2
05:10 15.4 84.9 1021.3 2.6 SSW 6.1 S 0.0 94.7
05:15 15.7 83.2 1021.4 2.6 SSW 6.1 SSW 0.0 106.8
05:20 16.2 80.5 1021.4 2.4 SSW 6.1 SW 0.0 119.1
05:25 16.8 77.0 1021.4 1.7 SW 6.1 SW 0.0 131.3
05:30 17.1 75.9 1021.4 1.0 SW 6.1 SSW 0.0 144.8
05:35 17.4 75.4 1021.4 1.9 SW 6.1 SW 0.0 158.5
05:40 17.6 74.6 1021.4 2.8 SW 6.1 SW 0.0 172.7
05:45 17.7 73.7 1021.3 3.2 WSW 6.1 SW 0.0 187.2
05:50 18.3 72.3 1021.4 0.9 SSW 6.1 WSW 0.0 201.7
05:55 18.6 71.9 1021.4 2.0 SSW 6.1 SSW 0.0 216.7
06:00 18.7 69.7 1021.4 4.3 SW 6.1 SW 0.0 231.3
06:05 19.1 67.3 1021.4 3.1 WSW 6.1 WSW 0.0 159.7
06:10 19.3 67.5 1021.5 1.9 WSW 6.1 SW 0.0 221.6
06:15 19.6 67.7 1021.6 0.0 WSW 3.4 WSW 0.0 276.2
06:20 19.8 67.7 1021.6 0.0 NNE 0.0 SSW 0.0 291.4
06:25 20.4 65.2 1021.6 0.0 NNE 0.0 SSW 0.0 307.1
06:30 21.3 61.6 1021.7 0.0 NNE 0.0 SSW 0.0 322.3
06:35 21.8 58.9 1021.7 0.5 S 3.4 S 0.0 337.8
06:40 22.1 57.3 1021.8 0.0 NNE 0.0 S 0.0 353.0
06:45 22.8 56.0 1021.8 1.3 NNE 6.1 NNE 0.0 368.5
06:50 22.8 58.5 1021.8 3.8 NE 8.8 NNE 0.0 384.1
06:55 22.7 60.7 1021.9 0.4 NE 6.1 NE 0.0 399.8
07:00 23.0 56.9 1021.9 0.2 NNE 3.4 NNE 0.0 415.0
07:05 23.2 59.2 1021.9 2.4 NNE 6.1 NNE 0.0 430.7
07:10 23.0 59.2 1021.9 2.3 ENE 8.8 ENE 0.0 445.4
07:15 23.0 58.7 1022.0 4.1 ENE 8.8 ENE 0.0 461.1
07:20 22.9 60.1 1022.0 1.4 ENE 6.1 ENE 0.0 476.3
07:25 23.3 61.2 1022.0 0.6 NE 3.4 NNE 0.0 491.2
07:30 23.6 59.4 1022.1 1.2 NE 6.1 NE 0.0 505.4
07:35 23.5 59.4 1022.0 2.9 ENE 6.1 ENE 0.0 519.8
07:40 23.4 61.7 1022.1 1.8 ENE 6.1 NNE 0.0 533.7
07:45 23.6 58.6 1022.1 1.9 E 6.1 E 0.0 547.9
07:50 23.7 57.9 1022.1 1.2 ESE 3.4 E 0.0 561.6
07:55 23.6 59.4 1022.1 3.2 ESE 6.1 E 0.0 574.6
08:00 23.2 61.6 1022.1 2.3 E 6.1 ESE 0.0 588.1
08:05 23.6 60.6 1022.1 1.1 ENE 6.1 NE 0.0 601.0
08:10 23.7 59.2 1022.1 2.7 E 6.1 ENE 0.0 614.0
08:15 23.7 59.8 1022.0 1.7 E 6.1 E 0.0 628.4
08:20 24.1 54.6 1022.1 1.0 ESE 6.1 ESE 0.0 640.4
08:25 24.3 54.2 1022.1 2.5 E 8.8 ESE 0.0 653.3
08:30 24.3 56.3 1022.1 3.3 E 8.8 ESE 0.0 664.3
08:35 24.0 58.5 1022.1 4.9 E 11.5 ESE 0.0 678.6
08:40 23.9 58.6 1022.0 3.3 ENE 8.8 ESE 0.0 690.3
08:45 24.0 56.0 1022.0 3.5 ENE 8.8 ENE 0.0 701.8
08:50 24.2 57.9 1021.9 6.0 E 14.2 ESE 0.0 642.3
08:55 24.1 56.8 1021.9 6.3 ENE 11.5 E 0.0 725.7
09:00 23.9 56.9 1021.8 5.2 ENE 11.5 E 0.0 736.6
09:05 24.2 55.1 1021.9 2.9 ENE 8.8 ESE 0.0 747.6
09:10 24.5 54.5 1021.9 4.9 E 11.5 E 0.0 758.8
09:15 24.6 53.1 1021.9 5.9 E 11.5 E 0.0 769.0
09:20 24.7 53.4 1021.9 6.0 E 11.5 ENE 0.0 778.2
09:25 24.8 53.2 1021.9 6.1 E 11.5 ENE 0.0 787.9
09:30 24.8 54.2 1021.9 4.7 ENE 11.5 E 0.0 796.2
09:35 24.8 54.7 1022.0 6.1 ENE 11.5 ENE 0.0 806.0
09:40 24.6 56.5 1022.0 4.3 NE 8.8 ENE 0.0 816.0
09:45 24.9 54.7 1022.0 5.3 E 14.2 ENE 0.0 824.0
09:50 24.7 55.9 1022.0 6.5 ENE 11.5 ENE 0.0 831.0
09:55 25.0 54.9 1022.0 6.9 E 19.6 ENE 0.0 838.0
10:00 24.9 55.6 1021.9 7.6 E 16.9 ESE 0.0 843.0
10:05 25.0 54.9 1021.9 3.9 ESE 8.8 ESE 0.0 850.0
10:10 24.9 54.6 1021.9 4.8 E 11.5 ESE 0.0 857.0
10:15 24.9 56.2 1021.8 4.6 ESE 11.5 ESE 0.0 866.0
10:20 25.1 54.9 1021.8 5.1 SE 11.5 SE 0.0 871.0
10:25 24.9 55.2 1021.9 6.1 SE 14.2 SE 0.0 872.0
10:30 25.1 55.5 1021.9 5.7 ESE 11.5 ENE 0.0 881.0
10:35 25.6 53.9 1021.8 6.2 ESE 11.5 E 0.0 887.0
10:40 25.5 54.4 1021.8 3.4 SE 8.8 SE 0.0 893.0
10:45 25.6 55.2 1021.8 6.2 NE 14.2 NNE 0.0 895.0
10:50 25.7 55.4 1021.8 4.4 ESE 11.5 ENE 0.0 897.0
10:55 25.8 54.4 1021.7 4.6 S 14.2 S 0.0 900.0
11:00 25.4 54.2 1021.7 6.4 SSE 11.5 ESE 0.0 907.0
11:05 25.5 53.8 1021.7 6.1 S 11.5 S 0.0 911.0
11:10 25.5 53.9 1021.7 5.9 S 11.5 SSW 0.0 911.0
11:15 25.9 53.8 1021.7 3.9 SSW 8.8 S 0.0 914.0
11:20 26.5 53.4 1021.7 2.5 E 8.8 W 0.0 886.0
11:25 26.7 50.6 1021.6 2.4 S 11.5 E 0.0 920.0
11:30 26.8 49.5 1021.6 3.6 ESE 11.5 ESE 0.0 918.0
11:35 26.4 50.2 1021.6 2.7 WSW 11.5 WSW 0.0 918.0
11:40 26.6 51.5 1021.6 3.3 SSW 8.8 NW 0.0 921.0
11:45 26.4 48.3 1021.5 5.4 SE 11.5 SSE 0.0 922.0
11:50 26.9 49.4 1021.5 2.8 NE 6.1 ESE 0.0 917.0
11:55 27.0 46.4 1021.5 4.5 SE 11.5 SE 0.0 919.0
12:00 26.7 46.9 1021.5 4.1 ESE 11.5 ESE 0.0 919.0
12:05 27.0 50.9 1021.4 5.2 N 11.5 NNE 0.0 914.0
12:10 26.6 51.4 1021.4 6.7 NNW 14.2 N 0.0 909.0
12:15 26.6 49.3 1021.3 5.2 NNE 11.5 NE 0.0 912.0
12:20 26.9 45.0 1021.3 4.2 ENE 8.8 E 0.0 914.0
12:25 27.0 44.4 1021.3 4.5 E 8.8 ESE 0.0 913.0
12:30 27.0 44.6 1021.3 5.2 ENE 11.5 E 0.0 857.0
12:35 26.8 45.9 1021.3 4.4 NE 11.5 E 0.0 903.0
12:40 27.0 48.8 1021.3 2.1 NNW 8.8 NW 0.0 901.0
12:45 27.2 44.0 1021.2 6.1 ESE 11.5 E 0.0 897.0
12:50 27.5 44.7 1021.2 2.3 E 8.8 E 0.0 894.0
12:55 27.5 42.5 1021.2 5.0 SE 8.8 E 0.0 886.0
13:00 27.4 45.9 1021.1 2.5 NNW 8.8 NW 0.0 879.0
13:05 27.3 44.2 1021.1 4.4 ENE 11.5 E 0.0 873.0
13:10 27.4 42.8 1021.0 6.4 E 14.2 ENE 0.0 857.0
13:15 27.4 43.5 1021.0 6.1 ENE 14.2 NE 0.0 849.0
13:20 27.2 43.8 1021.0 7.6 ENE 14.2 ESE 0.0 795.4
13:25 27.4 43.5 1020.9 4.7 E 8.8 E 0.0 848.0
13:30 27.4 45.2 1020.9 5.1 ENE 11.5 N 0.0 838.0
13:35 27.7 43.4 1020.8 5.2 ENE 11.5 ESE 0.0 832.0
13:40 27.4 44.6 1020.8 4.6 ENE 14.2 NE 0.0 819.0
13:45 27.5 45.2 1020.8 5.9 ENE 11.5 E 0.0 808.0
13:50 27.2 47.8 1020.7 7.3 E 14.2 E 0.0 802.0
13:55 27.1 48.8 1020.6 8.0 ENE 14.2 E 0.0 792.3
14:00 27.2 48.0 1020.5 7.1 ENE 14.2 E 0.0 787.5
14:05 27.2 49.0 1020.5 7.6 E 14.2 ENE 0.0 778.4
14:10 27.2 49.7 1020.5 7.0 E 14.2 E 0.0 766.7
14:15 27.2 48.4 1020.5 5.8 E 14.2 ESE 0.0 750.6
14:20 27.0 50.5 1020.4 8.5 E 16.9 E 0.0 742.8
14:25 27.0 50.0 1020.4 7.6 E 14.2 ESE 0.0 734.0
14:30 27.1 50.7 1020.4 7.5 E 14.2 E 0.0 724.1
14:35 26.9 52.2 1020.4 9.3 E 16.9 ESE 0.0 717.0
14:40 26.8 51.2 1020.3 7.0 E 14.2 ESE 0.0 708.7
14:45 26.7 51.5 1020.3 8.8 E 16.9 SE 0.0 704.7
14:50 26.9 52.0 1020.3 7.9 E 14.2 E 0.0 700.5
14:55 27.1 49.9 1020.3 8.3 E 14.2 E 0.0 680.3
15:00 27.0 49.8 1020.2 6.5 E 14.2 E 0.0 673.2
15:05 27.1 48.8 1020.2 6.4 E 11.5 E 0.0 661.2
15:10 26.9 49.8 1020.2 10.4 E 16.9 E 0.0 450.4
15:15 26.6 50.4 1020.2 10.0 E 16.9 E 0.0 476.6
15:20 26.6 52.3 1020.1 6.9 E 14.2 ESE 0.0 510.5
15:25 26.6 53.6 1020.1 7.4 E 19.6 E 0.0 524.2
15:30 26.7 52.7 1020.0 8.1 E 16.9 E 0.0 602.6
15:35 26.7 52.8 1020.0 8.2 E 14.2 E 0.0 552.5
15:40 26.7 52.1 1019.9 10.3 E 19.6 E 0.0 530.6
15:45 26.7 52.4 1019.9 10.1 E 16.9 E 0.0 529.2
15:50 26.6 52.5 1019.9 9.9 E 19.6 E 0.0 523.9
15:55 26.5 52.8 1019.9 11.2 E 19.6 E 0.0 512.3
16:00 26.4 52.6 1019.8 10.0 E 16.9 E 0.0 497.9
16:05 26.5 52.6 1019.8 7.4 E 16.9 ENE 0.0 485.3
16:10 26.4 52.4 1019.7 7.6 E 16.9 ESE 0.0 472.5
16:15 26.4 52.1 1019.7 8.1 E 16.9 ESE 0.0 456.9
16:20 26.4 52.0 1019.7 8.3 E 14.2 E 0.0 443.8
16:25 26.5 51.1 1019.7 8.3 E 14.2 ENE 0.0 429.8
16:30 26.3 50.8 1019.7 7.4 E 14.2 ESE 0.0 415.8
16:35 26.4 50.7 1019.6 7.3 E 11.5 ESE 0.0 402.4
16:40 26.4 50.3 1019.6 5.9 E 8.8 E 0.0 390.4
16:45 26.4 49.8 1019.6 7.1 E 11.5 ENE 0.0 375.1
16:50 26.5 49.4 1019.7 6.1 E 11.5 E 0.0 360.4
Màxima 27.8 94.0 1022.3 11.3 WNW 25.0 WNW 0.0 922.0
Mínima 14.7 42.5 1019.6
Total 0.0